createdAt,value
2023-01-28T00:00:29.983Z,-1.99
2023-01-28T00:01:31.635Z,-1.91
2023-01-28T00:02:34.906Z,-1.94
2023-01-28T00:03:36.786Z,-1.92
2023-01-28T00:04:38.389Z,-1.96
2023-01-28T00:05:39.983Z,-1.97
2023-01-28T00:06:41.648Z,-1.97
2023-01-28T00:07:43.568Z,-2.02
2023-01-28T00:08:45.285Z,-2.06
2023-01-28T00:09:46.849Z,-2.07
2023-01-28T00:10:48.479Z,-1.99
2023-01-28T00:11:50.219Z,-2.05
2023-01-28T00:12:51.854Z,-1.99
2023-01-28T00:13:54.201Z,-2.03
2023-01-28T00:14:55.801Z,-2.02
2023-01-28T00:16:02.401Z,-2.02
2023-01-28T00:17:05.822Z,-1.95
2023-01-28T00:18:07.486Z,-2.07
2023-01-28T00:19:09.311Z,-2.01
2023-01-28T00:20:11.201Z,-2.02
2023-01-28T00:21:14.730Z,-1.92
2023-01-28T00:22:16.658Z,-2.00
2023-01-28T00:23:18.227Z,-1.98
2023-01-28T00:24:19.800Z,-1.99
2023-01-28T00:25:21.426Z,-1.98
2023-01-28T00:26:24.443Z,-1.92
2023-01-28T00:27:26.057Z,-1.94
2023-01-28T00:28:27.929Z,-2.00
2023-01-28T00:29:29.493Z,-1.94
2023-01-28T00:30:31.113Z,-1.91
2023-01-28T00:31:34.417Z,-1.88
2023-01-28T00:32:36.293Z,-1.91
2023-01-28T00:33:38.017Z,-1.85
2023-01-28T00:34:39.627Z,-1.93
2023-01-28T00:35:42.245Z,-1.89
2023-01-28T00:36:44.621Z,-2.00
2023-01-28T00:37:47.293Z,-2.01
2023-01-28T00:38:52.074Z,-1.98
2023-01-28T00:39:54.177Z,-2.01
2023-01-28T00:40:56.360Z,-2.01
2023-01-28T00:41:58.386Z,-1.95
2023-01-28T00:42:59.993Z,-2.01
2023-01-28T00:44:01.590Z,-2.00
2023-01-28T00:45:04.538Z,-2.02
2023-01-28T00:46:10.468Z,-1.92
2023-01-28T00:47:12.043Z,-1.94
2023-01-28T00:48:13.644Z,-1.99
2023-01-28T00:49:15.200Z,-1.97
2023-01-28T00:50:17.991Z,-1.97
2023-01-28T00:51:20.688Z,-1.91
2023-01-28T00:52:23.885Z,-1.97
2023-01-28T00:53:25.563Z,-1.88
2023-01-28T00:54:27.153Z,-1.80
2023-01-28T00:55:28.827Z,-1.88
2023-01-28T00:56:30.396Z,-1.88
2023-01-28T00:57:31.974Z,-2.00
2023-01-28T00:58:34.162Z,-1.95
2023-01-28T00:59:35.724Z,-1.98
2023-01-28T01:00:39.469Z,-1.88
2023-01-28T01:01:41.143Z,-1.89
2023-01-28T01:02:42.791Z,-1.89
2023-01-28T01:03:44.661Z,-1.88
2023-01-28T01:04:54.986Z,-1.80
2023-01-28T01:05:57.798Z,-1.90
2023-01-28T01:06:59.279Z,-1.81
2023-01-28T01:08:01.007Z,-1.80
2023-01-28T01:09:07.370Z,-1.86
2023-01-28T01:10:15.356Z,-1.88
2023-01-28T01:11:18.844Z,-1.91
2023-01-28T01:12:20.429Z,-1.99
2023-01-28T01:13:22.076Z,-2.03
2023-01-28T01:14:23.749Z,-1.94
2023-01-28T01:15:25.371Z,-1.88
2023-01-28T01:16:32.275Z,-2.01
2023-01-28T01:17:33.868Z,-1.97
2023-01-28T01:18:36.040Z,-2.01
2023-01-28T01:19:37.621Z,-1.95
2023-01-28T01:20:45.547Z,-2.02
2023-01-28T01:21:50.601Z,-1.97
2023-01-28T01:22:52.489Z,-1.85
2023-01-28T01:23:54.362Z,-1.90
2023-01-28T01:24:56.783Z,-1.91
2023-01-28T01:25:59.006Z,-1.92
2023-01-28T01:27:00.819Z,-1.94
2023-01-28T01:28:03.438Z,-1.92
2023-01-28T01:29:05.013Z,-1.95
2023-01-28T01:30:08.456Z,-1.92
2023-01-28T01:31:18.055Z,-1.79
2023-01-28T01:32:20.386Z,-1.80
2023-01-28T01:33:21.934Z,-1.83
2023-01-28T01:34:24.531Z,-1.83
2023-01-28T01:35:26.198Z,-1.94
2023-01-28T01:36:27.927Z,-1.95
2023-01-28T01:37:29.592Z,-1.90
2023-01-28T01:38:31.224Z,-1.86
2023-01-28T01:39:32.839Z,-1.76
2023-01-28T01:40:34.833Z,-1.81
2023-01-28T01:41:36.452Z,-1.80
2023-01-28T01:42:40.419Z,-1.74
2023-01-28T01:43:53.363Z,-1.72
2023-01-28T01:45:07.262Z,-1.86
2023-01-28T01:46:09.942Z,-1.83
2023-01-28T01:47:11.816Z,-1.95
2023-01-28T01:48:39.512Z,-1.90
2023-01-28T01:49:41.248Z,-1.99
2023-01-28T01:50:49.899Z,-1.94
2023-01-28T01:51:56.071Z,-1.97
2023-01-28T01:53:04.584Z,-1.95
2023-01-28T01:54:06.550Z,-1.90
2023-01-28T01:55:12.970Z,-1.88
2023-01-28T01:56:17.508Z,-1.90
2023-01-28T01:57:24.785Z,-1.91
2023-01-28T01:58:30.006Z,-1.87
2023-01-28T01:59:32.958Z,-1.84
2023-01-28T02:00:34.546Z,-1.92
2023-01-28T02:01:36.421Z,-1.86
2023-01-28T02:02:49.005Z,-1.82
2023-01-28T02:03:53.164Z,-1.94
2023-01-28T02:04:54.776Z,-1.95
2023-01-28T02:05:56.398Z,-1.88
2023-01-28T02:06:59.832Z,-1.96
2023-01-28T02:08:20.418Z,-1.96
2023-01-28T02:09:29.998Z,-2.08
2023-01-28T02:10:31.699Z,-1.97
2023-01-28T02:11:33.762Z,-1.96
2023-01-28T02:12:37.792Z,-1.92
2023-01-28T02:13:42.541Z,-1.97
2023-01-28T02:14:46.337Z,-1.93
2023-01-28T02:15:50.171Z,-1.88
2023-01-28T02:16:51.881Z,-1.88
2023-01-28T02:17:53.624Z,-1.92
2023-01-28T02:18:55.310Z,-1.90
2023-01-28T02:20:02.553Z,-1.81
2023-01-28T02:21:20.300Z,-1.83
2023-01-28T02:22:39.954Z,-1.89
2023-01-28T02:23:55.231Z,-1.86
2023-01-28T02:25:15.029Z,-1.83
2023-01-28T02:26:35.238Z,-1.86
2023-01-28T02:27:58.521Z,-1.82
2023-01-28T02:29:27.601Z,-1.95
2023-01-28T02:30:33.984Z,-1.78
2023-01-28T02:31:51.426Z,-1.83
2023-01-28T02:32:56.185Z,-1.93
2023-01-28T02:34:17.475Z,-1.93
2023-01-28T02:35:37.246Z,-1.90
2023-01-28T02:36:46.782Z,-2.02
2023-01-28T02:38:04.643Z,-1.95
2023-01-28T02:39:16.232Z,-1.83
2023-01-28T02:40:23.492Z,-1.85
2023-01-28T02:41:32.991Z,-1.84
2023-01-28T02:42:37.379Z,-1.84
2023-01-28T02:43:41.624Z,-1.88
2023-01-28T02:44:43.222Z,-1.85
2023-01-28T02:46:03.855Z,-1.88
2023-01-28T02:47:29.753Z,-1.75
2023-01-28T02:48:31.405Z,-1.70
2023-01-28T02:49:53.337Z,-1.83
2023-01-28T02:51:18.039Z,-1.89
2023-01-28T02:52:47.996Z,-1.83
2023-01-28T02:53:57.914Z,-1.92
2023-01-28T02:55:18.562Z,-1.91
2023-01-28T02:56:32.583Z,-1.83
2023-01-28T02:58:18.375Z,-1.94
2023-01-28T02:59:56.775Z,-1.93
2023-01-28T03:01:16.423Z,-2.01
2023-01-28T03:02:30.038Z,-2.11
2023-01-28T03:04:10.334Z,-2.04
2023-01-28T03:05:31.744Z,-1.90
2023-01-28T03:06:39.193Z,-1.94
2023-01-28T03:07:40.821Z,-1.91
2023-01-28T03:09:03.704Z,-1.93
2023-01-28T03:10:08.251Z,-1.85
2023-01-28T03:11:28.914Z,-1.83
2023-01-28T03:12:50.344Z,-1.86
2023-01-28T03:14:10.372Z,-1.92
2023-01-28T03:15:38.310Z,-1.89
2023-01-28T03:16:58.504Z,-1.96
2023-01-28T03:18:34.391Z,-1.88
2023-01-28T03:19:55.605Z,-1.94
2023-01-28T03:21:39.725Z,-1.92
2023-01-28T03:23:03.103Z,-1.95
2023-01-28T03:24:41.868Z,-1.98
2023-01-28T03:26:03.812Z,-2.05
2023-01-28T03:27:58.625Z,-1.99
2023-01-28T03:29:25.673Z,-2.01
2023-01-28T03:30:47.017Z,-2.06
2023-01-28T03:32:16.561Z,-2.12
2023-01-28T03:33:36.640Z,-2.01
2023-01-28T03:34:56.895Z,-2.00
2023-01-28T03:36:17.166Z,-1.98
2023-01-28T03:37:19.186Z,-1.94
2023-01-28T03:38:25.909Z,-1.91
2023-01-28T03:39:29.808Z,-2.00
2023-01-28T03:40:31.989Z,-2.05
2023-01-28T03:41:33.525Z,-2.01
2023-01-28T03:42:35.160Z,-2.03
2023-01-28T03:43:45.344Z,-2.12
2023-01-28T03:44:53.094Z,-2.01
2023-01-28T03:45:55.870Z,-2.11
2023-01-28T03:46:58.004Z,-2.03
2023-01-28T03:47:59.660Z,-2.09
2023-01-28T03:49:01.572Z,-2.06
2023-01-28T03:50:03.576Z,-2.08
2023-01-28T03:51:12.061Z,-2.11
2023-01-28T03:52:13.647Z,-2.02
2023-01-28T03:53:16.865Z,-2.03
2023-01-28T03:54:36.780Z,-2.07
2023-01-28T03:55:38.477Z,-1.94
2023-01-28T03:56:41.200Z,-1.90
2023-01-28T03:57:44.784Z,-2.06
2023-01-28T03:58:52.934Z,-2.04
2023-01-28T03:59:54.921Z,-2.07
2023-01-28T04:00:57.321Z,-2.13
2023-01-28T04:01:59.026Z,-2.10
2023-01-28T04:03:01.152Z,-2.15
2023-01-28T04:04:03.091Z,-2.16
2023-01-28T04:05:07.026Z,-2.10
2023-01-28T04:06:10.182Z,-2.12
2023-01-28T04:07:40.942Z,-2.15
2023-01-28T04:09:06.037Z,-2.08
2023-01-28T04:10:15.894Z,-2.06
2023-01-28T04:11:26.035Z,-2.07
2023-01-28T04:12:27.880Z,-1.96
2023-01-28T04:13:29.939Z,-1.99
2023-01-28T04:14:32.187Z,-2.05
2023-01-28T04:15:43.366Z,-1.99
2023-01-28T04:16:45.757Z,-2.05
2023-01-28T04:17:48.337Z,-1.98
2023-01-28T04:18:58.857Z,-2.03
2023-01-28T04:20:00.629Z,-1.91
2023-01-28T04:21:02.307Z,-1.93
2023-01-28T04:22:09.474Z,-1.81
2023-01-28T04:23:11.442Z,-1.83
2023-01-28T04:24:13.677Z,-1.82
2023-01-28T04:25:15.899Z,-1.91
2023-01-28T04:26:18.409Z,-2.00
2023-01-28T04:27:20.069Z,-1.92
2023-01-28T04:28:23.263Z,-1.83
2023-01-28T04:29:25.124Z,-1.95
2023-01-28T04:30:29.038Z,-2.05
2023-01-28T04:31:40.120Z,-1.93
2023-01-28T04:33:17.142Z,-1.96
2023-01-28T04:34:29.913Z,-1.81
2023-01-28T04:35:50.261Z,-1.84
2023-01-28T04:37:18.262Z,-1.90
2023-01-28T04:38:41.317Z,-1.83
2023-01-28T04:40:21.147Z,-1.86
2023-01-28T04:41:32.311Z,-1.91
2023-01-28T04:42:40.162Z,-2.00
2023-01-28T04:43:54.896Z,-2.05
2023-01-28T04:45:02.713Z,-1.94
2023-01-28T04:46:24.224Z,-1.91
2023-01-28T04:47:35.821Z,-1.96
2023-01-28T04:48:48.559Z,-1.98
2023-01-28T04:50:17.043Z,-1.94
2023-01-28T04:51:34.110Z,-1.96
2023-01-28T04:53:01.979Z,-1.97
2023-01-28T04:54:31.042Z,-1.95
2023-01-28T04:55:36.105Z,-1.91
2023-01-28T04:56:37.801Z,-1.80
2023-01-28T04:57:39.582Z,-1.89
2023-01-28T04:58:42.663Z,-1.96
2023-01-28T04:59:48.656Z,-1.90
2023-01-28T05:00:57.695Z,-1.93
2023-01-28T05:01:59.842Z,-1.91
2023-01-28T05:03:01.617Z,-1.96
2023-01-28T05:04:05.658Z,-1.99
2023-01-28T05:05:10.055Z,-2.00
2023-01-28T05:06:25.578Z,-1.99
2023-01-28T05:07:32.300Z,-2.00
2023-01-28T05:08:33.940Z,-1.92
2023-01-28T05:09:36.832Z,-1.86
2023-01-28T05:10:40.338Z,-1.89
2023-01-28T05:11:42.029Z,-1.83
2023-01-28T05:12:45.175Z,-1.83
2023-01-28T05:13:47.121Z,-1.92
2023-01-28T05:14:48.955Z,-1.89
2023-01-28T05:15:54.298Z,-1.89
2023-01-28T05:16:56.271Z,-1.85
2023-01-28T05:17:58.053Z,-1.81
2023-01-28T05:19:01.717Z,-1.81
2023-01-28T05:20:12.526Z,-1.85
2023-01-28T05:21:14.654Z,-1.95
2023-01-28T05:22:16.325Z,-1.91
2023-01-28T05:23:23.353Z,-1.94
2023-01-28T05:24:28.935Z,-2.01
2023-01-28T05:25:30.668Z,-1.89
2023-01-28T05:26:32.420Z,-1.88
2023-01-28T05:27:34.354Z,-1.97
2023-01-28T05:28:36.007Z,-1.83
2023-01-28T05:29:37.655Z,-1.91
2023-01-28T05:30:39.382Z,-1.86
2023-01-28T05:31:41.267Z,-1.78
2023-01-28T05:32:42.992Z,-1.84
2023-01-28T05:33:44.642Z,-1.86
2023-01-28T05:34:47.642Z,-1.92
2023-01-28T05:35:49.800Z,-1.91
2023-01-28T05:36:53.835Z,-1.98
2023-01-28T05:38:15.469Z,-1.88
2023-01-28T05:39:17.325Z,-1.94
2023-01-28T05:40:19.130Z,-1.90
2023-01-28T05:41:20.745Z,-2.01
2023-01-28T05:42:28.212Z,-1.94
2023-01-28T05:43:40.237Z,-1.90
2023-01-28T05:44:44.834Z,-2.00
2023-01-28T05:46:06.275Z,-1.89
2023-01-28T05:47:30.658Z,-2.01
2023-01-28T05:48:40.544Z,-1.99
2023-01-28T05:50:10.822Z,-1.78
2023-01-28T05:51:18.190Z,-1.78
2023-01-28T05:52:27.678Z,-1.91
2023-01-28T05:53:29.310Z,-1.93
2023-01-28T05:54:30.906Z,-1.97
2023-01-28T05:55:32.689Z,-1.95
2023-01-28T05:56:36.464Z,-1.89
2023-01-28T05:57:38.218Z,-1.92
2023-01-28T05:58:40.730Z,-1.82
2023-01-28T05:59:42.685Z,-1.95
2023-01-28T06:00:44.347Z,-1.96
2023-01-28T06:01:46.653Z,-1.96
2023-01-28T06:02:48.362Z,-1.99
2023-01-28T06:03:50.808Z,-1.92
2023-01-28T06:04:53.471Z,-1.84
2023-01-28T06:05:55.217Z,-1.89
2023-01-28T06:06:56.933Z,-1.75
2023-01-28T06:07:58.627Z,-1.82
2023-01-28T06:09:00.812Z,-1.74
2023-01-28T06:10:06.240Z,-1.80
2023-01-28T06:11:07.978Z,-1.89
2023-01-28T06:12:09.989Z,-1.94
2023-01-28T06:13:24.476Z,-1.91
2023-01-28T06:14:44.506Z,-1.85
2023-01-28T06:16:15.339Z,-1.82
2023-01-28T06:17:35.763Z,-1.83
2023-01-28T06:18:42.582Z,-1.91
2023-01-28T06:19:44.312Z,-1.87
2023-01-28T06:20:45.979Z,-1.83
2023-01-28T06:21:47.621Z,-1.74
2023-01-28T06:22:52.561Z,-1.87
2023-01-28T06:23:54.893Z,-1.95
2023-01-28T06:24:56.600Z,-1.99
2023-01-28T06:25:58.299Z,-1.78
2023-01-28T06:27:00.386Z,-1.80
2023-01-28T06:28:02.065Z,-1.75
2023-01-28T06:29:03.699Z,-1.74
2023-01-28T06:30:05.876Z,-1.71
2023-01-28T06:31:07.681Z,-1.66
2023-01-28T06:32:09.318Z,-1.74
2023-01-28T06:33:10.914Z,-1.70
2023-01-28T06:34:13.123Z,-1.65
2023-01-28T06:35:14.799Z,-1.77
2023-01-28T06:36:16.539Z,-1.70
2023-01-28T06:37:18.377Z,-1.79
2023-01-28T06:38:20.471Z,-1.86
2023-01-28T06:39:22.304Z,-1.93
2023-01-28T06:40:24.992Z,-1.88
2023-01-28T06:41:26.534Z,-1.86
2023-01-28T06:42:28.167Z,-1.85
2023-01-28T06:43:30.740Z,-1.79
2023-01-28T06:44:32.384Z,-1.84
2023-01-28T06:45:33.956Z,-1.85
2023-01-28T06:46:36.149Z,-1.68
2023-01-28T06:47:40.787Z,-1.85
2023-01-28T06:48:42.443Z,-1.95
2023-01-28T06:49:44.047Z,-1.95
2023-01-28T06:50:47.888Z,-1.84
2023-01-28T06:51:49.629Z,-1.94
2023-01-28T06:52:51.308Z,-1.78
2023-01-28T06:53:52.952Z,-1.89
2023-01-28T06:54:54.564Z,-1.90
2023-01-28T06:55:56.155Z,-1.81
2023-01-28T06:56:57.755Z,-1.69
2023-01-28T06:57:59.366Z,-1.90
2023-01-28T06:59:01.279Z,-1.81
2023-01-28T07:00:04.206Z,-1.76
2023-01-28T07:01:05.735Z,-1.82
2023-01-28T07:02:07.370Z,-1.79
2023-01-28T07:03:09.029Z,-1.74
2023-01-28T07:04:10.897Z,-1.77
2023-01-28T07:05:12.505Z,-1.93
2023-01-28T07:06:14.086Z,-1.99
2023-01-28T07:07:15.721Z,-1.76
2023-01-28T07:08:17.358Z,-1.89
2023-01-28T07:09:18.959Z,-1.94
2023-01-28T07:10:20.861Z,-2.00
2023-01-28T07:11:22.605Z,-1.81
2023-01-28T07:12:24.609Z,-1.71
2023-01-28T07:13:26.508Z,-1.77
2023-01-28T07:14:28.100Z,-1.74
2023-01-28T07:15:29.779Z,-1.78
2023-01-28T07:16:31.447Z,-1.67
2023-01-28T07:17:33.172Z,-1.80
2023-01-28T07:18:35.110Z,-1.84
2023-01-28T07:19:36.851Z,-1.90
2023-01-28T07:20:38.419Z,-1.79
2023-01-28T07:21:40.369Z,-1.66
2023-01-28T07:22:43.427Z,-1.79
2023-01-28T07:23:45.195Z,-1.71
2023-01-28T07:24:46.846Z,-1.73
2023-01-28T07:25:48.455Z,-1.66
2023-01-28T07:26:50.028Z,-1.70
2023-01-28T07:27:53.299Z,-1.80
2023-01-28T07:28:54.956Z,-1.81
2023-01-28T07:29:56.566Z,-1.72
2023-01-28T07:30:58.225Z,-1.74
2023-01-28T07:32:00.154Z,-1.72
2023-01-28T07:33:02.268Z,-1.82
2023-01-28T07:34:04.015Z,-1.85
2023-01-28T07:35:06.144Z,-1.84
2023-01-28T07:36:08.132Z,-1.70
2023-01-28T07:37:09.949Z,-1.73
2023-01-28T07:38:12.317Z,-1.78
2023-01-28T07:39:13.920Z,-1.85
2023-01-28T07:40:16.446Z,-1.77
2023-01-28T07:41:18.148Z,-1.78
2023-01-28T07:42:19.867Z,-1.78
2023-01-28T07:43:22.343Z,-1.87
2023-01-28T07:44:24.696Z,-1.78
2023-01-28T07:45:26.785Z,-1.81
2023-01-28T07:46:28.657Z,-1.72
2023-01-28T07:47:30.259Z,-1.70
2023-01-28T07:48:31.936Z,-1.66
2023-01-28T07:49:34.281Z,-1.78
2023-01-28T07:50:37.307Z,-1.75
2023-01-28T07:51:38.886Z,-1.69
2023-01-28T07:52:44.557Z,-1.76
2023-01-28T07:53:46.568Z,-1.65
2023-01-28T07:54:48.539Z,-1.76
2023-01-28T07:55:50.184Z,-1.81
2023-01-28T07:56:51.998Z,-1.60
2023-01-28T07:58:00.516Z,-1.66
2023-01-28T07:59:02.356Z,-1.71
2023-01-28T08:00:04.920Z,-1.51
2023-01-28T08:01:14.293Z,-1.46
2023-01-28T08:02:16.109Z,-1.66
2023-01-28T08:03:17.702Z,-1.65
2023-01-28T08:04:19.484Z,-1.57
2023-01-28T08:05:21.777Z,-1.60
2023-01-28T08:06:23.541Z,-1.54
2023-01-28T08:07:25.722Z,-1.56
2023-01-28T08:08:27.769Z,-1.57
2023-01-28T08:09:29.445Z,-1.66
2023-01-28T08:10:31.086Z,-1.61
2023-01-28T08:11:33.207Z,-1.60
2023-01-28T08:12:34.904Z,-1.59
2023-01-28T08:13:36.638Z,-1.68
2023-01-28T08:14:38.295Z,-1.69
2023-01-28T08:15:40.282Z,-1.79
2023-01-28T08:16:41.951Z,-1.71
2023-01-28T08:17:43.537Z,-1.67
2023-01-28T08:18:45.089Z,-1.67
2023-01-28T08:19:46.816Z,-1.74
2023-01-28T08:20:48.454Z,-1.69
2023-01-28T08:21:50.571Z,-1.66
2023-01-28T08:22:52.467Z,-1.57
2023-01-28T08:23:54.946Z,-1.58
2023-01-28T08:24:56.636Z,-1.53
2023-01-28T08:25:58.997Z,-1.53
2023-01-28T08:27:00.590Z,-1.46
2023-01-28T08:28:03.426Z,-1.43
2023-01-28T08:29:05.696Z,-1.59
2023-01-28T08:30:09.201Z,-1.48
2023-01-28T08:31:10.964Z,-1.58
2023-01-28T08:32:12.599Z,-1.51
2023-01-28T08:33:15.272Z,-1.46
2023-01-28T08:34:16.793Z,-1.40
2023-01-28T08:35:18.377Z,-1.39
2023-01-28T08:36:20.324Z,-1.34
2023-01-28T08:37:21.901Z,-1.37
2023-01-28T08:38:23.549Z,-1.49
2023-01-28T08:39:25.160Z,-1.54
2023-01-28T08:40:27.153Z,-1.43
2023-01-28T08:41:29.951Z,-1.36
2023-01-28T08:42:31.737Z,-1.39
2023-01-28T08:43:33.390Z,-1.26
2023-01-28T08:44:35.007Z,-1.23
2023-01-28T08:45:36.639Z,-1.17
2023-01-28T08:46:38.372Z,-1.08
2023-01-28T08:47:50.504Z,-1.08
2023-01-28T08:48:52.189Z,-1.13
2023-01-28T08:49:53.931Z,-1.21
2023-01-28T08:50:58.774Z,-1.22
2023-01-28T08:52:00.376Z,-1.16
2023-01-28T08:53:08.190Z,-1.17
2023-01-28T08:54:09.905Z,-1.24
2023-01-28T08:55:12.043Z,-1.12
2023-01-28T08:56:14.413Z,-1.14
2023-01-28T08:57:15.961Z,-1.13
2023-01-28T08:58:18.528Z,-1.18
2023-01-28T08:59:20.152Z,-1.21
2023-01-28T09:00:22.981Z,-1.17
2023-01-28T09:01:26.222Z,-1.04
2023-01-28T09:02:31.946Z,-0.98
2023-01-28T09:03:34.210Z,-1.13
2023-01-28T09:04:35.864Z,-1.04
2023-01-28T09:05:37.828Z,-1.11
2023-01-28T09:06:39.408Z,-1.05
2023-01-28T09:07:40.991Z,-1.05
2023-01-28T09:08:42.641Z,-1.05
2023-01-28T09:09:44.241Z,-0.88
2023-01-28T09:10:45.889Z,-0.99
2023-01-28T09:11:47.485Z,-1.02
2023-01-28T09:12:49.186Z,-1.11
2023-01-28T09:13:50.830Z,-1.09
2023-01-28T09:14:52.970Z,-0.93
2023-01-28T09:15:54.614Z,-0.97
2023-01-28T09:16:56.224Z,-0.99
2023-01-28T09:17:59.343Z,-0.83
2023-01-28T09:19:01.061Z,-0.84
2023-01-28T09:20:02.681Z,-0.77
2023-01-28T09:21:06.202Z,-0.68
2023-01-28T09:22:07.784Z,-0.70
2023-01-28T09:23:09.452Z,-0.73
2023-01-28T09:24:12.245Z,-0.77
2023-01-28T09:25:14.068Z,-0.77
2023-01-28T09:26:15.709Z,-0.71
2023-01-28T09:27:17.745Z,-0.63
2023-01-28T09:28:19.371Z,-0.74
2023-01-28T09:29:20.979Z,-0.68
2023-01-28T09:30:22.686Z,-0.85
2023-01-28T09:31:24.469Z,-0.75
2023-01-28T09:32:26.115Z,-0.77
2023-01-28T09:33:27.723Z,-0.67
2023-01-28T09:34:29.452Z,-0.78
2023-01-28T09:35:31.050Z,-0.73
2023-01-28T09:36:32.747Z,-0.90
2023-01-28T09:37:34.371Z,-0.84
2023-01-28T09:38:36.304Z,-0.94
2023-01-28T09:39:38.485Z,-1.08
2023-01-28T09:40:43.870Z,-0.99
2023-01-28T09:42:17.671Z,-1.06
2023-01-28T09:43:49.262Z,-0.74
2023-01-28T09:45:03.861Z,-0.97
2023-01-28T09:46:06.791Z,-0.94
2023-01-28T09:47:18.939Z,-0.88
2023-01-28T09:48:23.319Z,-0.74
2023-01-28T09:49:49.904Z,-0.62
2023-01-28T09:50:53.935Z,-0.75
2023-01-28T09:51:55.887Z,-0.71
2023-01-28T09:53:02.272Z,-0.69
2023-01-28T09:54:25.499Z,-0.79
2023-01-28T09:55:36.845Z,-0.78
2023-01-28T09:56:42.685Z,-0.71
2023-01-28T09:57:49.603Z,-0.61
2023-01-28T09:58:51.433Z,-0.41
2023-01-28T09:59:53.244Z,-0.52
2023-01-28T10:01:12.028Z,-0.68
2023-01-28T10:02:38.248Z,-0.86
2023-01-28T10:04:01.889Z,-0.83
2023-01-28T10:05:12.579Z,-0.93
2023-01-28T10:06:19.768Z,-0.98
2023-01-28T10:07:39.096Z,-1.03
2023-01-28T10:08:55.841Z,-0.95
2023-01-28T10:10:07.045Z,-0.91
2023-01-28T10:11:20.775Z,-0.91
2023-01-28T10:12:31.208Z,-0.87
2023-01-28T10:13:39.894Z,-0.57
2023-01-28T10:15:18.810Z,-0.53
2023-01-28T10:16:29.962Z,-0.53
2023-01-28T10:17:34.496Z,-0.66
2023-01-28T10:18:51.951Z,-0.67
2023-01-28T10:20:11.706Z,-0.79
2023-01-28T10:21:24.812Z,-0.82
2023-01-28T10:22:30.836Z,-0.77
2023-01-28T10:23:57.237Z,-0.57
2023-01-28T10:25:06.359Z,-0.46
2023-01-28T10:26:20.189Z,-0.48
2023-01-28T10:27:24.750Z,-0.54
2023-01-28T10:28:30.201Z,-0.75
2023-01-28T10:29:35.023Z,-0.68
2023-01-28T10:30:39.630Z,-0.65
2023-01-28T10:31:53.501Z,-0.52
2023-01-28T10:33:24.538Z,-0.54
2023-01-28T10:34:26.324Z,-0.48
2023-01-28T10:35:29.418Z,-0.43
2023-01-28T10:36:30.977Z,-0.32
2023-01-28T10:37:35.647Z,-0.29
2023-01-28T10:38:37.253Z,-0.38
2023-01-28T10:39:38.893Z,-0.22
2023-01-28T10:40:43.507Z,-0.07
2023-01-28T10:41:56.569Z,-0.12
2023-01-28T10:42:58.517Z,-0.07
2023-01-28T10:44:00.122Z,-0.21
2023-01-28T10:45:24.229Z,-0.11
2023-01-28T10:46:32.444Z,-0.18
2023-01-28T10:47:39.975Z,-0.06
2023-01-28T10:49:02.705Z,-0.06
2023-01-28T10:50:05.754Z,0.10
2023-01-28T10:51:07.380Z,-0.02
2023-01-28T10:52:13.994Z,-0.01
2023-01-28T10:53:15.638Z,-0.01
2023-01-28T10:54:28.307Z,-0.12
2023-01-28T10:55:52.167Z,-0.16
2023-01-28T10:56:58.182Z,-0.09
2023-01-28T10:58:00.281Z,0.17
2023-01-28T10:59:07.443Z,0.32
2023-01-28T11:00:17.959Z,0.32
2023-01-28T11:01:19.652Z,0.19
2023-01-28T11:02:27.273Z,0.21
2023-01-28T11:03:30.794Z,0.44
2023-01-28T11:04:34.564Z,0.56
2023-01-28T11:05:36.324Z,0.90
2023-01-28T11:06:37.969Z,1.02
2023-01-28T11:07:39.561Z,0.90
2023-01-28T11:08:44.932Z,0.89
2023-01-28T11:09:49.026Z,0.72
2023-01-28T11:10:52.065Z,0.66
2023-01-28T11:11:53.816Z,0.56
2023-01-28T11:13:00.534Z,0.58
2023-01-28T11:14:02.134Z,0.56
2023-01-28T11:15:06.023Z,0.69
2023-01-28T11:16:18.133Z,0.80
2023-01-28T11:17:23.047Z,0.81
2023-01-28T11:18:28.473Z,0.75
2023-01-28T11:19:36.874Z,0.55
2023-01-28T11:20:41.658Z,0.60
2023-01-28T11:21:49.439Z,0.64
2023-01-28T11:22:51.491Z,0.85
2023-01-28T11:23:59.477Z,0.39
2023-01-28T11:25:19.268Z,0.33
2023-01-28T11:26:29.834Z,0.36
2023-01-28T11:27:32.099Z,0.47
2023-01-28T11:28:34.039Z,0.40
2023-01-28T11:29:39.407Z,0.48
2023-01-28T11:30:41.558Z,0.47
2023-01-28T11:31:44.312Z,0.17
2023-01-28T11:32:46.095Z,0.18
2023-01-28T11:33:53.338Z,0.34
2023-01-28T11:34:57.439Z,0.35
2023-01-28T11:36:05.973Z,0.34
2023-01-28T11:37:16.248Z,0.32
2023-01-28T11:38:20.059Z,0.42
2023-01-28T11:39:25.931Z,0.38
2023-01-28T11:40:28.141Z,0.61
2023-01-28T11:41:33.524Z,0.63
2023-01-28T11:42:35.258Z,0.70
2023-01-28T11:43:36.902Z,0.76
2023-01-28T11:44:38.709Z,0.94
2023-01-28T11:45:47.591Z,1.05
2023-01-28T11:47:10.679Z,0.97
2023-01-28T11:48:41.939Z,1.21
2023-01-28T11:49:59.748Z,1.08
2023-01-28T11:51:08.071Z,0.98
2023-01-28T11:53:04.787Z,0.94
2023-01-28T11:54:40.887Z,0.99
2023-01-28T11:56:10.806Z,0.90
2023-01-28T11:57:24.496Z,1.15
2023-01-28T11:58:41.090Z,1.29
2023-01-28T11:59:58.551Z,1.34
2023-01-28T12:01:48.246Z,1.67
2023-01-28T12:03:05.482Z,1.82
2023-01-28T12:04:09.987Z,1.63
2023-01-28T12:05:29.950Z,1.44
2023-01-28T12:06:40.553Z,1.16
2023-01-28T12:07:46.713Z,1.11
2023-01-28T12:09:00.576Z,1.06
2023-01-28T12:10:23.017Z,0.95
2023-01-28T12:11:56.077Z,1.11
2023-01-28T12:13:05.992Z,1.04
2023-01-28T12:14:17.272Z,0.97
2023-01-28T12:15:47.828Z,0.97
2023-01-28T12:17:22.180Z,0.80
2023-01-28T12:18:37.712Z,0.78
2023-01-28T12:19:45.414Z,0.75
2023-01-28T12:20:49.975Z,0.80
2023-01-28T12:22:03.422Z,0.86
2023-01-28T12:23:13.798Z,0.74
2023-01-28T12:24:15.454Z,0.88
2023-01-28T12:25:26.869Z,0.93
2023-01-28T12:26:49.687Z,0.87
2023-01-28T12:27:58.492Z,0.71
2023-01-28T12:29:23.932Z,0.62
2023-01-28T12:30:50.859Z,0.64
2023-01-28T12:31:55.385Z,0.59
2023-01-28T12:32:59.635Z,0.78
2023-01-28T12:34:24.332Z,0.59
2023-01-28T12:35:32.743Z,0.68
2023-01-28T12:36:40.466Z,0.81
2023-01-28T12:38:11.494Z,0.90
2023-01-28T12:39:45.588Z,0.69
2023-01-28T12:40:49.519Z,0.63
2023-01-28T12:42:03.359Z,0.86
2023-01-28T12:43:25.569Z,0.69
2023-01-28T12:44:33.010Z,0.80
2023-01-28T12:45:45.699Z,0.73
2023-01-28T12:46:48.506Z,0.69
2023-01-28T12:47:54.712Z,0.59
2023-01-28T12:49:04.793Z,0.72
2023-01-28T12:50:13.861Z,0.73
2023-01-28T12:51:22.867Z,0.73
2023-01-28T12:52:29.734Z,0.86
2023-01-28T12:53:47.153Z,0.83
2023-01-28T12:55:14.664Z,0.86
2023-01-28T12:56:20.308Z,1.01
2023-01-28T12:57:32.298Z,0.92
2023-01-28T12:58:48.777Z,0.86
2023-01-28T12:59:57.021Z,0.61
2023-01-28T13:01:03.730Z,0.55
2023-01-28T13:02:11.310Z,0.68
2023-01-28T13:03:30.694Z,0.82
2023-01-28T13:04:40.103Z,0.83
2023-01-28T13:05:51.375Z,0.82
2023-01-28T13:06:58.546Z,1.01
2023-01-28T13:08:23.439Z,1.17
2023-01-28T13:09:26.443Z,1.13
2023-01-28T13:10:42.092Z,1.23
2023-01-28T13:11:43.875Z,1.17
2023-01-28T13:12:45.965Z,1.01
2023-01-28T13:13:47.727Z,1.01
2023-01-28T13:14:52.613Z,0.75
2023-01-28T13:15:55.949Z,0.84
2023-01-28T13:17:09.551Z,0.84
2023-01-28T13:18:29.856Z,0.64
2023-01-28T13:19:40.209Z,0.76
2023-01-28T13:20:50.249Z,0.82
2023-01-28T13:21:52.446Z,0.79
2023-01-28T13:23:02.116Z,0.85
2023-01-28T13:24:21.306Z,0.86
2023-01-28T13:25:27.898Z,0.79
2023-01-28T13:26:38.418Z,0.69
2023-01-28T13:27:40.070Z,0.67
2023-01-28T13:28:41.722Z,0.60
2023-01-28T13:29:48.783Z,0.49
2023-01-28T13:30:50.475Z,0.50
2023-01-28T13:31:54.389Z,0.58
2023-01-28T13:32:58.872Z,0.54
2023-01-28T13:34:03.257Z,0.51
2023-01-28T13:35:07.799Z,0.60
2023-01-28T13:36:24.079Z,0.65
2023-01-28T13:37:31.447Z,0.56
2023-01-28T13:38:34.051Z,0.48
2023-01-28T13:39:35.684Z,0.58
2023-01-28T13:40:38.942Z,0.51
2023-01-28T13:41:44.571Z,0.50
2023-01-28T13:42:46.187Z,0.52
2023-01-28T13:43:47.861Z,0.42
2023-01-28T13:44:49.646Z,0.38
2023-01-28T13:46:02.681Z,0.36
2023-01-28T13:47:15.726Z,0.38
2023-01-28T13:48:47.301Z,0.31
2023-01-28T13:49:58.593Z,0.56
2023-01-28T13:51:02.004Z,0.59
2023-01-28T13:52:13.040Z,0.35
2023-01-28T13:53:24.234Z,0.58
2023-01-28T13:54:26.780Z,0.51
2023-01-28T13:55:44.563Z,0.45
2023-01-28T13:57:01.460Z,0.46
2023-01-28T13:58:06.481Z,0.42
2023-01-28T13:59:17.450Z,0.27
2023-01-28T14:00:37.526Z,0.19
2023-01-28T14:02:17.986Z,0.31
2023-01-28T14:03:34.471Z,0.13
2023-01-28T14:04:55.214Z,0.08
2023-01-28T14:06:11.854Z,0.08
2023-01-28T14:07:44.378Z,0.11
2023-01-28T14:08:48.718Z,0.25
2023-01-28T14:10:11.950Z,0.23
2023-01-28T14:11:34.564Z,0.19
2023-01-28T14:13:03.186Z,0.31
2023-01-28T14:14:20.029Z,0.35
2023-01-28T14:15:33.960Z,0.35
2023-01-28T14:16:52.287Z,0.32
2023-01-28T14:17:56.266Z,0.49
2023-01-28T14:19:00.926Z,0.35
2023-01-28T14:20:03.654Z,0.28
2023-01-28T14:21:12.735Z,0.31
2023-01-28T14:22:18.773Z,0.17
2023-01-28T14:23:22.451Z,0.22
2023-01-28T14:24:24.251Z,0.31
2023-01-28T14:25:51.173Z,0.28
2023-01-28T14:27:17.558Z,0.31
2023-01-28T14:28:46.701Z,0.38
2023-01-28T14:30:05.780Z,0.44
2023-01-28T14:31:28.657Z,0.36
2023-01-28T14:32:31.746Z,0.32
2023-01-28T14:33:33.449Z,0.36
2023-01-28T14:34:36.242Z,0.28
2023-01-28T14:35:40.065Z,0.15
2023-01-28T14:36:43.725Z,0.10